createdAt,value
2022-10-22T00:01:59.500Z,99541.84
2022-10-22T00:04:48.273Z,99537.59
2022-10-22T00:07:36.669Z,99524.66
2022-10-22T00:10:26.409Z,99518.63
2022-10-22T00:13:14.732Z,99501.09
2022-10-22T00:16:03.066Z,99516.72
2022-10-22T00:18:51.540Z,99528.81
2022-10-22T00:21:39.915Z,99530.47
2022-10-22T00:24:28.314Z,99537.34
2022-10-22T00:27:18.031Z,99536.53
2022-10-22T00:30:07.656Z,99540.91
2022-10-22T00:32:56.021Z,99543.63
2022-10-22T00:35:45.839Z,99539.22
2022-10-22T00:38:34.395Z,99536.75
2022-10-22T00:41:22.820Z,99545.50
2022-10-22T00:45:04.922Z,99565.66
2022-10-22T00:48:00.376Z,99572.66
2022-10-22T00:50:50.462Z,99579.75
2022-10-22T00:53:41.731Z,99567.69
2022-10-22T00:56:30.266Z,99570.28
2022-10-22T00:59:18.624Z,99575.72
2022-10-22T01:02:08.315Z,99591.34
2022-10-22T01:04:56.650Z,99588.97
2022-10-22T01:07:47.952Z,99583.97
2022-10-22T01:10:48.123Z,99575.94
2022-10-22T01:13:43.714Z,99576.16
2022-10-22T01:16:35.823Z,99577.34
2022-10-22T01:19:47.858Z,99580.06
2022-10-22T01:22:40.123Z,99575.91
2022-10-22T01:25:32.706Z,99578.53
2022-10-22T01:28:24.713Z,99582.78
2022-10-22T01:31:14.469Z,99586.34
2022-10-22T01:34:02.965Z,99582.19
2022-10-22T01:36:51.302Z,99575.38
2022-10-22T01:39:39.782Z,99576.34
2022-10-22T01:42:28.319Z,99580.81
2022-10-22T01:45:16.784Z,99591.34
2022-10-22T01:48:18.188Z,99583.06
2022-10-22T01:51:22.557Z,99583.16
2022-10-22T01:54:17.881Z,99584.34
2022-10-22T01:57:10.346Z,99586.00
2022-10-22T02:00:01.805Z,99581.75
2022-10-22T02:03:00.681Z,99582.69
2022-10-22T02:05:52.113Z,99566.31
2022-10-22T02:08:40.712Z,99545.00
2022-10-22T02:11:29.284Z,99568.22
2022-10-22T02:14:17.744Z,99572.94
2022-10-22T02:17:06.102Z,99573.38
2022-10-22T02:19:56.882Z,99591.84
2022-10-22T02:22:46.608Z,99591.94
2022-10-22T02:25:37.309Z,99568.59
2022-10-22T02:28:29.275Z,99561.75
2022-10-22T02:31:21.061Z,99549.16
2022-10-22T02:34:13.997Z,99558.66
2022-10-22T02:37:03.118Z,99544.91
2022-10-22T02:39:52.913Z,99545.97
2022-10-22T02:42:42.106Z,99543.56
2022-10-22T02:45:30.993Z,99530.78
2022-10-22T02:51:12.661Z,99530.16
2022-10-22T02:54:01.100Z,99527.69
2022-10-22T02:56:50.819Z,99521.63
2022-10-22T02:59:39.277Z,99514.16
2022-10-22T03:02:27.700Z,99520.31
2022-10-22T03:05:16.115Z,99519.50
2022-10-22T03:08:04.663Z,99525.63
2022-10-22T03:10:53.069Z,99518.78
2022-10-22T03:13:42.787Z,99517.94
2022-10-22T03:16:31.205Z,99540.53
2022-10-22T03:19:19.755Z,99534.50
2022-10-22T03:22:10.664Z,99540.44
2022-10-22T03:25:00.635Z,99524.00
2022-10-22T03:27:49.053Z,99518.66
2022-10-22T03:30:38.788Z,99528.25
2022-10-22T03:33:27.139Z,99529.78
2022-10-22T03:36:15.498Z,99553.13
2022-10-22T03:39:03.831Z,99539.38
2022-10-22T03:41:52.466Z,99528.13
2022-10-22T03:44:40.879Z,99527.31
2022-10-22T03:47:30.619Z,99544.59
2022-10-22T03:50:19.177Z,99578.53
2022-10-22T03:53:10.489Z,99623.09
2022-10-22T03:55:58.920Z,99635.63
2022-10-22T03:58:47.301Z,99633.97
2022-10-22T04:01:35.909Z,99627.91
2022-10-22T04:04:25.805Z,99635.72
2022-10-22T04:07:14.289Z,99628.03
2022-10-22T04:10:02.646Z,99633.56
2022-10-22T04:12:51.087Z,99632.94
2022-10-22T04:15:39.521Z,99621.16
2022-10-22T04:18:27.941Z,99630.00
2022-10-22T04:21:19.513Z,99634.47
2022-10-22T04:24:08.090Z,99641.44
2022-10-22T04:26:56.545Z,99632.09
2022-10-22T04:29:44.981Z,99635.66
2022-10-22T04:32:33.359Z,99638.25
2022-10-22T04:35:21.812Z,99643.56
2022-10-22T04:38:11.595Z,99654.78
2022-10-22T04:41:03.432Z,99664.56
2022-10-22T04:43:51.813Z,99667.47
2022-10-22T04:46:40.454Z,99666.75
2022-10-22T04:49:29.041Z,99666.97
2022-10-22T04:52:17.445Z,99686.22
2022-10-22T04:55:07.803Z,99677.91
2022-10-22T04:57:56.162Z,99682.16
2022-10-22T05:00:44.673Z,99683.94
2022-10-22T05:03:33.083Z,99676.22
2022-10-22T05:06:21.759Z,99688.31
2022-10-22T05:09:12.697Z,99691.66
2022-10-22T05:12:02.552Z,99697.66
2022-10-22T05:14:50.971Z,99707.13
2022-10-22T05:17:39.591Z,99701.00
2022-10-22T05:20:28.150Z,99701.94
2022-10-22T05:23:16.556Z,99699.53
2022-10-22T05:26:05.085Z,99709.00
2022-10-22T05:28:54.803Z,99707.13
2022-10-22T05:31:43.180Z,99718.47
2022-10-22T05:34:33.326Z,99722.63
2022-10-22T05:37:21.668Z,99720.13
2022-10-22T05:40:19.326Z,99732.41
2022-10-22T05:43:15.177Z,99727.41
2022-10-22T05:46:07.048Z,99730.84
2022-10-22T05:48:56.777Z,99737.59
2022-10-22T05:51:45.158Z,99743.44
2022-10-22T05:54:33.703Z,99741.59
2022-10-22T05:57:22.071Z,99739.59
2022-10-22T06:00:15.659Z,99744.91
2022-10-22T06:03:06.398Z,99749.06
2022-10-22T06:05:36.284Z,99752.50
2022-10-22T06:08:04.478Z,99754.06
2022-10-22T06:10:32.538Z,99746.16
2022-10-22T06:13:01.511Z,99752.91
2022-10-22T06:15:29.672Z,99762.41
2022-10-22T06:17:57.759Z,99766.56
2022-10-22T06:20:27.318Z,99776.97
2022-10-22T06:22:55.474Z,99784.66
2022-10-22T06:25:23.669Z,99776.16
2022-10-22T06:27:52.458Z,99783.97
2022-10-22T06:30:20.494Z,99788.94
2022-10-22T06:32:48.539Z,99787.06
2022-10-22T06:35:16.834Z,99800.63
2022-10-22T06:37:47.397Z,99797.84
2022-10-22T06:40:16.361Z,99800.13
2022-10-22T06:42:44.440Z,99808.66
2022-10-22T06:45:12.593Z,99812.63
2022-10-22T06:47:40.807Z,99820.22
2022-10-22T06:50:09.899Z,99818.25
2022-10-22T06:52:37.995Z,99825.53
2022-10-22T06:55:08.147Z,99822.41
2022-10-22T06:57:36.275Z,99838.44
2022-10-22T07:00:05.671Z,99831.56
2022-10-22T07:02:33.850Z,99834.97
2022-10-22T07:05:01.903Z,99839.88
2022-10-22T07:07:30.031Z,99848.50
2022-10-22T07:09:58.267Z,99838.13
2022-10-22T07:12:27.801Z,99834.47
2022-10-22T07:14:55.932Z,99844.44
2022-10-22T07:17:23.987Z,99841.97
2022-10-22T07:19:52.126Z,99848.31
2022-10-22T07:22:20.222Z,99849.38
2022-10-22T07:24:48.287Z,99854.59
2022-10-22T07:27:16.315Z,99843.06
2022-10-22T07:29:45.981Z,99859.47
2022-10-22T07:32:14.081Z,99847.31
2022-10-22T07:34:43.891Z,99839.84
2022-10-22T07:37:12.231Z,99842.47
2022-10-22T07:39:40.338Z,99848.38
2022-10-22T07:42:08.398Z,99844.75
2022-10-22T07:44:36.793Z,99849.84
2022-10-22T07:47:06.335Z,99863.84
2022-10-22T07:49:34.471Z,99864.88
2022-10-22T07:52:02.626Z,99870.44
2022-10-22T07:54:30.905Z,99870.69
2022-10-22T07:56:58.990Z,99869.88
2022-10-22T07:59:27.305Z,99873.69
2022-10-22T08:01:55.392Z,99874.63
2022-10-22T08:04:24.814Z,99873.22
2022-10-22T08:06:52.907Z,99875.28
2022-10-22T08:09:21.136Z,99870.22
2022-10-22T08:11:49.209Z,99872.50
2022-10-22T08:14:17.410Z,99868.97
2022-10-22T08:16:46.351Z,99868.91
2022-10-22T08:19:18.662Z,99868.16
2022-10-22T08:21:48.199Z,99867.53
2022-10-22T08:24:16.308Z,99871.22
2022-10-22T08:26:44.495Z,99869.22
2022-10-22T08:29:12.665Z,99877.84
2022-10-22T08:31:40.734Z,99874.53
2022-10-22T08:34:09.250Z,99878.16
2022-10-22T08:36:37.328Z,99881.31
2022-10-22T08:39:06.840Z,99878.16
2022-10-22T08:41:35.416Z,99883.09
2022-10-22T08:44:21.938Z,99884.28
2022-10-22T08:47:21.385Z,99894.66
2022-10-22T08:49:50.600Z,99900.25
2022-10-22T08:52:19.661Z,99903.03
2022-10-22T08:54:52.997Z,99909.19
2022-10-22T08:57:36.128Z,99912.78
2022-10-22T09:00:06.950Z,99928.50
2022-10-22T09:02:40.207Z,99918.69
2022-10-22T09:05:28.958Z,99926.91
2022-10-22T09:07:57.179Z,99928.59
2022-10-22T09:10:30.254Z,99932.94
2022-10-22T09:12:58.375Z,99937.78
2022-10-22T09:15:26.970Z,99933.06
2022-10-22T09:18:07.453Z,99925.22
2022-10-22T09:20:39.906Z,99941.81
2022-10-22T09:23:25.234Z,99932.63
2022-10-22T09:25:55.418Z,99943.03
2022-10-22T09:28:23.496Z,99951.34
2022-10-22T09:30:51.661Z,99947.69
2022-10-22T09:33:25.389Z,99951.91
2022-10-22T09:35:54.944Z,99949.09
2022-10-22T09:38:26.595Z,99947.63
2022-10-22T09:40:57.234Z,99946.19
2022-10-22T09:43:25.497Z,99943.53
2022-10-22T09:45:57.872Z,99951.94
2022-10-22T09:48:31.237Z,99951.69
2022-10-22T09:51:07.247Z,99940.78
2022-10-22T09:53:37.934Z,99946.69
2022-10-22T09:56:11.298Z,99951.47
2022-10-22T09:58:43.819Z,99947.22
2022-10-22T10:01:18.379Z,99962.97
2022-10-22T10:03:46.602Z,99964.06
2022-10-22T10:06:18.063Z,99952.16
2022-10-22T10:08:46.251Z,99961.66
2022-10-22T10:11:20.492Z,99961.22
2022-10-22T10:13:53.535Z,99957.19
2022-10-22T10:16:35.289Z,99956.88
2022-10-22T10:19:18.460Z,99950.34
2022-10-22T10:21:52.810Z,99965.81
2022-10-22T10:24:24.793Z,99958.59
2022-10-22T10:26:57.561Z,99957.72
2022-10-22T10:32:24.489Z,99946.03
2022-10-22T10:34:59.366Z,99941.66
2022-10-22T10:37:29.122Z,99950.34
2022-10-22T10:40:15.733Z,99953.66
2022-10-22T10:42:50.508Z,99944.66
2022-10-22T10:45:21.302Z,99954.16
2022-10-22T10:48:08.136Z,99962.28
2022-10-22T10:50:41.496Z,99954.44
2022-10-22T10:53:15.793Z,99956.22
2022-10-22T10:55:54.447Z,99943.72
2022-10-22T10:58:30.216Z,99946.31
2022-10-22T11:00:59.755Z,99952.72
2022-10-22T11:03:55.641Z,99945.09
2022-10-22T11:06:25.758Z,99945.13
2022-10-22T11:09:14.580Z,99949.38
2022-10-22T11:11:49.766Z,99948.22
2022-10-22T11:14:24.254Z,99943.75
2022-10-22T11:16:56.858Z,99950.66
2022-10-22T11:19:49.618Z,99949.84
2022-10-22T11:22:17.252Z,99944.03
2022-10-22T11:24:50.681Z,99943.22
2022-10-22T11:27:23.552Z,99937.28
2022-10-22T11:29:57.225Z,99942.47
2022-10-22T11:32:26.451Z,99934.53
2022-10-22T11:34:55.871Z,99944.81
2022-10-22T11:37:24.485Z,99947.78
2022-10-22T11:39:54.277Z,99949.75
2022-10-22T11:42:23.650Z,99948.94
2022-10-22T11:45:02.297Z,99946.31
2022-10-22T11:47:33.485Z,99946.59
2022-10-22T11:50:19.639Z,99936.13
2022-10-22T11:52:56.555Z,99941.63
2022-10-22T11:55:48.927Z,99935.66
2022-10-22T11:58:35.339Z,99932.41
2022-10-22T12:01:28.293Z,99926.47
2022-10-22T12:04:21.895Z,99929.69
2022-10-22T12:06:59.083Z,99918.88
2022-10-22T12:09:30.192Z,99922.31
2022-10-22T12:12:12.323Z,99923.91
2022-10-22T12:14:52.553Z,99930.84
2022-10-22T12:17:22.563Z,99924.19
2022-10-22T12:19:52.750Z,99916.97
2022-10-22T12:22:22.902Z,99919.22
2022-10-22T12:24:53.814Z,99922.16
2022-10-22T12:27:23.391Z,99919.22
2022-10-22T12:29:55.427Z,99917.88
2022-10-22T12:32:25.547Z,99927.41
2022-10-22T12:34:53.922Z,99924.47
2022-10-22T12:37:22.141Z,99921.59
2022-10-22T12:39:50.167Z,99923.38
2022-10-22T12:42:18.849Z,99921.44
2022-10-22T12:44:46.916Z,99900.16
2022-10-22T12:47:16.900Z,99901.38
2022-10-22T12:49:48.563Z,99905.06
2022-10-22T12:52:19.640Z,99911.38
2022-10-22T12:54:48.318Z,99907.78
2022-10-22T12:57:18.480Z,99910.25
2022-10-22T12:59:49.884Z,99909.16
2022-10-22T13:02:22.330Z,99921.31
2022-10-22T13:05:17.244Z,99919.25
2022-10-22T13:07:48.497Z,99919.25
2022-10-22T13:10:20.910Z,99920.50
2022-10-22T13:12:53.322Z,99912.22
2022-10-22T13:15:24.308Z,99920.81
2022-10-22T13:17:52.583Z,99920.09
2022-10-22T13:20:23.642Z,99920.19
2022-10-22T13:22:58.395Z,99905.38
2022-10-22T13:25:29.199Z,99901.78
2022-10-22T13:27:58.687Z,99904.13
2022-10-22T13:30:28.968Z,99908.41
2022-10-22T13:32:57.864Z,99911.72
2022-10-22T13:35:29.371Z,99910.06
2022-10-22T13:37:57.522Z,99896.34
2022-10-22T13:40:25.613Z,99906.91
2022-10-22T13:42:53.933Z,99915.41
2022-10-22T13:45:22.022Z,99916.97
2022-10-22T13:47:52.900Z,99916.34
2022-10-22T13:50:21.806Z,99918.28
2022-10-22T13:52:53.802Z,99909.56
2022-10-22T13:55:25.394Z,99912.47
2022-10-22T13:57:53.626Z,99911.91
2022-10-22T14:00:22.424Z,99918.78
2022-10-22T14:02:53.244Z,99913.91
2022-10-22T14:05:21.452Z,99917.88
2022-10-22T14:07:49.559Z,99926.13
2022-10-22T14:10:21.230Z,99913.78
2022-10-22T14:12:52.542Z,99923.03
2022-10-22T14:15:23.700Z,99926.75
2022-10-22T14:17:54.888Z,99914.31
2022-10-22T14:20:25.194Z,99923.88
2022-10-22T14:22:53.327Z,99922.34
2022-10-22T14:25:24.246Z,99918.72
2022-10-22T14:27:52.341Z,99904.56
2022-10-22T14:30:23.554Z,99911.59
2022-10-22T14:32:51.971Z,99911.16
2022-10-22T14:35:24.424Z,99906.75
2022-10-22T14:37:52.645Z,99916.53
2022-10-22T14:40:22.556Z,99912.91
2022-10-22T14:42:50.638Z,99908.88
2022-10-22T14:45:20.930Z,99914.81
2022-10-22T14:47:49.169Z,99919.56
2022-10-22T14:50:17.523Z,99911.41
2022-10-22T14:52:45.750Z,99910.03
2022-10-22T14:55:14.576Z,99909.81
2022-10-22T14:57:44.691Z,99910.16
2022-10-22T15:00:15.490Z,99896.94
2022-10-22T15:02:44.001Z,99901.28
2022-10-22T15:05:12.301Z,99907.91
2022-10-22T15:07:40.669Z,99908.34
2022-10-22T15:10:10.225Z,99910.03
2022-10-22T15:12:38.269Z,99905.69
2022-10-22T15:15:09.024Z,99906.81
2022-10-22T15:17:37.111Z,99907.63
2022-10-22T15:20:06.581Z,99904.50
2022-10-22T15:22:36.020Z,99890.81
2022-10-22T15:25:05.359Z,99901.88
2022-10-22T15:27:33.547Z,99899.50
2022-10-22T15:32:36.010Z,99900.13
2022-10-22T15:35:05.709Z,99892.44
2022-10-22T15:37:33.859Z,99903.53
2022-10-22T15:40:03.734Z,99901.72
2022-10-22T15:42:31.872Z,99902.75
2022-10-22T15:45:00.296Z,99904.41
2022-10-22T15:47:31.076Z,99900.13
2022-10-22T15:50:00.499Z,99909.56
2022-10-22T15:52:28.527Z,99911.75
2022-10-22T15:54:56.652Z,99911.53
2022-10-22T15:57:24.838Z,99915.09
2022-10-22T15:59:52.878Z,99914.00
2022-10-22T16:02:20.903Z,99921.09
2022-10-22T16:04:48.966Z,99920.03
2022-10-22T16:07:21.075Z,99922.19
2022-10-22T16:09:52.219Z,99923.47
2022-10-22T16:12:20.336Z,99926.88
2022-10-22T16:14:51.214Z,99922.09
2022-10-22T16:17:19.416Z,99924.75
2022-10-22T16:19:48.925Z,99926.34
2022-10-22T16:22:18.452Z,99923.13
2022-10-22T16:24:46.627Z,99919.03
2022-10-22T16:27:14.751Z,99929.53
2022-10-22T16:29:42.914Z,99929.47
2022-10-22T16:32:13.175Z,99929.88
2022-10-22T16:34:41.981Z,99935.44
2022-10-22T16:37:10.625Z,99932.28
2022-10-22T16:39:40.147Z,99936.94
2022-10-22T16:42:08.199Z,99948.22
2022-10-22T16:44:36.348Z,99942.22
2022-10-22T16:47:04.504Z,99939.59
2022-10-22T16:49:32.617Z,99941.31
2022-10-22T16:52:00.700Z,99942.81
2022-10-22T16:54:29.045Z,99950.34
2022-10-22T16:56:58.431Z,99947.44
2022-10-22T16:59:26.557Z,99951.41
2022-10-22T17:01:54.935Z,99952.84
2022-10-22T17:04:23.583Z,99951.47
2022-10-22T17:06:51.658Z,99955.44
2022-10-22T17:09:19.983Z,99951.78
2022-10-22T17:11:48.150Z,99953.84
2022-10-22T17:14:17.602Z,99959.47
2022-10-22T17:16:48.752Z,99953.72
2022-10-22T17:19:16.825Z,99958.38
2022-10-22T17:21:44.908Z,99962.13
2022-10-22T17:24:12.958Z,99971.06
2022-10-22T17:26:41.153Z,99968.66
2022-10-22T17:29:09.183Z,99973.34
2022-10-22T17:31:38.883Z,99962.53
2022-10-22T17:34:08.141Z,99965.53
2022-10-22T17:36:36.871Z,99972.59
2022-10-22T17:39:07.275Z,99973.72
2022-10-22T17:41:37.398Z,99973.94
2022-10-22T17:44:08.806Z,99977.47
2022-10-22T17:46:39.009Z,99983.59
2022-10-22T17:49:16.031Z,99985.47
2022-10-22T17:51:44.229Z,99977.03
2022-10-22T17:54:12.433Z,99984.91
2022-10-22T17:56:40.701Z,99993.75
2022-10-22T17:59:08.967Z,99994.88
2022-10-22T18:01:43.263Z,99998.59
2022-10-22T18:04:12.531Z,99998.78
2022-10-22T18:06:40.552Z,100011.13
2022-10-22T18:09:11.489Z,100000.94
2022-10-22T18:11:41.400Z,100008.00
2022-10-22T18:14:09.468Z,100007.25
2022-10-22T18:16:38.944Z,99993.72
2022-10-22T18:19:07.234Z,100003.00
2022-10-22T18:21:35.348Z,99994.47
2022-10-22T18:24:03.443Z,99997.06
2022-10-22T18:26:31.625Z,99997.06
2022-10-22T18:28:59.712Z,99991.84
2022-10-22T18:31:30.232Z,99995.28
2022-10-22T18:34:00.198Z,99985.72
2022-10-22T18:36:28.423Z,99987.41
2022-10-22T18:38:59.254Z,99989.25
2022-10-22T18:41:27.556Z,99982.38
2022-10-22T18:43:56.846Z,99992.97
2022-10-22T18:46:25.141Z,99984.44
2022-10-22T18:48:53.914Z,99981.09
2022-10-22T18:51:23.944Z,99983.16
2022-10-22T18:54:04.603Z,99980.63
2022-10-22T18:56:40.444Z,99980.91
2022-10-22T18:59:14.618Z,99977.56
2022-10-22T19:01:42.777Z,99984.63
2022-10-22T19:04:10.848Z,99976.81
2022-10-22T19:06:44.316Z,99980.44
2022-10-22T19:09:14.306Z,99978.06
2022-10-22T19:11:42.713Z,99973.84
2022-10-22T19:14:10.818Z,99970.50
2022-10-22T19:16:38.932Z,99974.03
2022-10-22T19:19:08.053Z,99963.84
2022-10-22T19:21:36.178Z,99967.19
2022-10-22T19:24:06.283Z,99964.59
2022-10-22T19:26:34.461Z,99961.13
2022-10-22T19:29:02.680Z,99965.31
2022-10-22T19:31:31.211Z,99953.06
2022-10-22T19:33:59.503Z,99957.25
2022-10-22T19:36:28.726Z,99964.03
2022-10-22T19:38:57.259Z,99958.63
2022-10-22T19:41:27.710Z,99961.03
2022-10-22T19:43:56.165Z,99965.94
2022-10-22T19:46:25.591Z,99964.19
2022-10-22T19:48:54.218Z,99971.59
2022-10-22T19:51:23.927Z,99967.16
2022-10-22T19:53:52.520Z,99960.84
2022-10-22T19:56:21.900Z,99968.63
2022-10-22T19:58:52.119Z,99954.72
2022-10-22T20:01:20.937Z,99944.50
2022-10-22T20:04:08.643Z,99958.97
2022-10-22T20:06:57.650Z,99962.41
2022-10-22T20:09:46.462Z,99961.56
2022-10-22T20:12:35.406Z,99964.91
2022-10-22T20:15:25.881Z,99956.19
2022-10-22T20:18:14.880Z,99962.84
2022-10-22T20:21:06.016Z,99966.19
2022-10-22T20:23:56.370Z,99968.63
2022-10-22T20:26:47.421Z,99967.69
2022-10-22T20:29:36.416Z,99979.03
2022-10-22T20:32:27.868Z,99966.19
2022-10-22T20:35:16.440Z,99978.44
2022-10-22T20:38:04.786Z,99978.56
2022-10-22T20:41:01.605Z,99970.84
2022-10-22T20:43:51.565Z,99977.81
2022-10-22T20:46:39.952Z,99977.81
2022-10-22T20:49:29.930Z,99967.44
2022-10-22T20:52:18.395Z,99973.38
2022-10-22T20:55:07.698Z,99964.72
2022-10-22T20:57:56.115Z,99958.59
2022-10-22T21:00:44.680Z,99957.78
2022-10-22T21:06:27.702Z,99971.59
2022-10-22T21:09:16.257Z,99956.00
2022-10-22T21:12:06.294Z,99958.69
2022-10-22T21:14:54.657Z,99955.06
2022-10-22T21:17:43.000Z,99956.00
2022-10-22T21:20:31.490Z,99968.91
2022-10-22T21:23:21.172Z,99954.13
2022-10-22T21:26:09.525Z,99957.66
2022-10-22T21:28:57.857Z,99953.41
2022-10-22T21:31:46.264Z,99957.84
2022-10-22T21:34:38.163Z,99955.34
2022-10-22T21:37:29.873Z,99951.91
2022-10-22T21:40:19.656Z,99957.31
2022-10-22T21:43:08.039Z,99955.75
2022-10-22T21:46:08.019Z,99950.72
2022-10-22T21:48:59.120Z,99944.50
2022-10-22T21:51:47.494Z,99941.88
2022-10-22T21:54:37.334Z,99944.31
2022-10-22T21:57:27.054Z,99941.22
2022-10-22T22:00:16.922Z,99936.47
2022-10-22T22:03:08.398Z,99933.56
2022-10-22T22:05:59.861Z,99944.63
2022-10-22T22:08:48.492Z,99936.72
2022-10-22T22:11:36.943Z,99951.09
2022-10-22T22:14:26.725Z,99943.09
2022-10-22T22:17:16.361Z,99944.56
2022-10-22T22:20:05.840Z,99946.78
2022-10-22T22:22:54.258Z,99945.75
2022-10-22T22:25:42.660Z,99943.25
2022-10-22T22:28:31.236Z,99944.56
2022-10-22T22:31:24.632Z,99951.03
2022-10-22T22:34:14.971Z,99955.47
2022-10-22T22:37:03.350Z,99952.53
2022-10-22T22:39:51.692Z,99953.09
2022-10-22T22:42:40.038Z,99940.69
2022-10-22T22:45:28.391Z,99942.75
2022-10-22T22:48:18.124Z,99951.84
2022-10-22T22:51:07.271Z,99951.38
2022-10-22T22:53:56.066Z,99943.97
2022-10-22T22:56:44.394Z,99942.59
2022-10-22T22:59:32.784Z,99946.88
2022-10-22T23:02:21.161Z,99937.56
2022-10-22T23:05:10.944Z,99931.97
2022-10-22T23:07:59.296Z,99923.88
2022-10-22T23:10:47.736Z,99918.09
2022-10-22T23:13:36.381Z,99921.06
2022-10-22T23:16:26.251Z,99915.47
2022-10-22T23:19:15.390Z,99912.78
2022-10-22T23:22:05.055Z,99910.09
2022-10-22T23:24:53.434Z,99916.75
2022-10-22T23:27:42.040Z,99916.75
2022-10-22T23:30:30.547Z,99923.63
2022-10-22T23:33:19.301Z,99920.84
2022-10-22T23:36:08.324Z,99918.13
2022-10-22T23:38:58.084Z,99917.59
2022-10-22T23:41:46.680Z,99920.78
2022-10-22T23:44:35.131Z,99919.69
2022-10-22T23:47:23.477Z,99911.72
2022-10-22T23:50:12.985Z,99922.22
2022-10-22T23:53:01.361Z,99920.09
2022-10-22T23:55:51.093Z,99907.38
2022-10-22T23:58:39.533Z,99916.09
